Viking Queen — WDB9919 — position and weather

sailwx.info

Track history (hours):
 
Tides and Currents Weather Stations Pressure Air Temp Water Temp Dewpoint Dewpoint Depression Visibility Wind Speed Wind Dir Waves Ship Positions

Viking Queen

Owner: American River Transportation Company, St Louis, MO. More information available from US FCC via Universal Licensing System and Coast Guard Vessel Documentation Center.

Last reported at 2017-Oct-13 12:15 UTC. Time now 2017-Oct-22 10:16 UTC.
Position N 33°15' W 091°07'.
Warning: this ship's position is 8 days out of date.

Length 58 m; draft 3 m.

Type: Towing. MMSI: 366985050.

Date/timePositionNaut miles runAvg speedWind from/ knotsBaromVisibWave heightAir tempDewpointWater temp
2017-Oct-13 12:15N 33°15' W 091°07'1 5.3
2017-Oct-13 12:00N 33°14' W 091°06'3 5.8
2017-Oct-13 11:30N 33°11' W 091°05'2 4.7
2017-Oct-13 11:00N 33°09' W 091°05'4 5.0
2017-Oct-13 10:08N 33°06' W 091°09'1 5.8
2017-Oct-13 09:58N 33°06' W 091°10'3 6.0
2017-Oct-13 09:30N 33°03' W 091°09'3 5.1
2017-Oct-13 08:58N 33°00' W 091°09'3 4.1
2017-Oct-13 08:07N 32°57' W 091°07'1 6.8
2017-Oct-13 08:00N 32°57' W 091°06'3 5.3
2017-Oct-13 07:30N 32°55' W 091°04'3 5.2
2017-Oct-13 06:56N 32°53' W 091°05'3 5.0
2017-Oct-13 06:25N 32°51' W 091°08'2 4.7
2017-Oct-13 06:00N 32°49' W 091°09'2 4.1
2017-Oct-13 05:27N 32°47' W 091°09'2 3.9
2017-Oct-13 05:00N 32°45' W 091°09'0 0.1
2017-Oct-13 04:30N 32°45' W 091°09'0 0.1
2017-Oct-13 04:00N 32°45' W 091°09'2 3.4
2017-Oct-13 03:30N 32°44' W 091°08'3 5.2
2017-Oct-13 02:54N 32°44' W 091°05'3 3.8
2017-Oct-13 02:12N 32°41' W 091°04'0 0.1
2017-Oct-13 01:54N 32°41' W 091°04'0 0.0
2017-Oct-13 01:30N 32°41' W 091°04'2 1.4
2017-Oct-12 23:55N 32°40' W 091°06'2 5.0
2017-Oct-12 23:30N 32°39' W 091°09'3 5.4
2017-Oct-12 23:00N 32°37' W 091°09'3 5.3
2017-Oct-12 22:30N 32°35' W 091°07'2 4.6
2017-Oct-12 22:00N 32°33' W 091°06'2 4.7
2017-Oct-12 21:30N 32°30' W 091°07'2 3.5
2017-Oct-12 21:00N 32°29' W 091°07'3 6.0
2017-Oct-12 20:30N 32°27' W 091°04'3 5.8
2017-Oct-12 20:00N 32°26' W 091°01'2 4.5
2017-Oct-12 19:30N 32°24' W 090°60'2 4.9
2017-Oct-12 19:00N 32°21' W 090°59'3 5.9
2017-Oct-12 18:30N 32°21' W 090°56'2 4.3
2017-Oct-12 18:00N 32°20' W 090°54'2 3.3
2017-Oct-12 17:30N 32°18' W 090°55'0 0.1
2017-Oct-12 17:00N 32°18' W 090°55'0 0.1
2017-Oct-12 16:30N 32°18' W 090°55'0 0.5
2017-Oct-12 16:00N 32°18' W 090°55'0 0.3
2017-Oct-12 15:30N 32°18' W 090°55'0 0.0
2017-Oct-12 15:00N 32°18' W 090°55'0 0.0
2017-Oct-12 14:30N 32°18' W 090°55'0 0.0
2017-Oct-12 14:00N 32°18' W 090°55'0 0.0
2017-Oct-12 13:30N 32°18' W 090°55'0 0.0
2017-Oct-12 13:00N 32°18' W 090°55'0 0.0
2017-Oct-12 12:30N 32°18' W 090°55'0 0.0
2017-Oct-12 12:00N 32°18' W 090°55'0 0.3
2017-Oct-12 11:30N 32°18' W 090°55'2 3.9
2017-Oct-12 11:00N 32°17' W 090°57'3 5.2
2017-Oct-12 10:30N 32°15' W 090°59'1 1.7
2017-Oct-12 10:00N 32°14' W 090°59'2 3.8
2017-Oct-12 09:29N 32°12' W 090°59'2 4.5
2017-Oct-12 09:00N 32°10' W 091°00'3 5.5
2017-Oct-12 08:29N 32°07' W 091°01'4 3.0
2017-Oct-12 07:20N 32°08' W 091°05'1 4.3
2017-Oct-12 07:00N 32°07' W 091°07'3 5.2
2017-Oct-12 06:30N 32°05' W 091°04'2 4.7
2017-Oct-12 06:00N 32°03' W 091°04'3 6.1
2017-Oct-12 05:30N 32°00' W 091°05'6 5.1
2017-Oct-12 04:25N 31°58' W 091°11'4 5.6
2017-Oct-12 03:47N 31°54' W 091°12'5 5.5
2017-Oct-12 02:50N 31°51' W 091°17'2 4.9
2017-Oct-12 02:25N 31°51' W 091°19'2 4.3
2017-Oct-12 01:59N 31°50' W 091°21'3 6.0
2017-Oct-12 01:30N 31°48' W 091°22'3 5.3
2017-Oct-12 00:53N 31°44' W 091°22'2 5.6
2017-Oct-12 00:29N 31°43' W 091°24'  
2017-Oct-07 13:27N 31°56' W 091°12'4 5.9
2017-Oct-07 12:50N 31°59' W 091°09'2 7.2
2017-Oct-07 12:30N 31°59' W 091°06'4 7.0
2017-Oct-07 12:00N 32°02' W 091°04'4 6.6
2017-Oct-07 11:23N 32°06' W 091°06'2 4.5
2017-Oct-07 11:00N 32°08' W 091°07'2 4.1
2017-Oct-07 10:30N 32°08' W 091°04'3 6.0
2017-Oct-07 10:00N 32°08' W 091°01'4 7.9
2017-Oct-07 09:30N 32°12' W 090°60'4 8.9
2017-Oct-07 09:00N 32°16' W 090°58'4 7.2
2017-Oct-07 08:30N 32°18' W 090°55'3 5.1
2017-Oct-07 08:00N 32°21' W 090°56'4 7.2
2017-Oct-07 07:30N 32°21' W 090°60'3 6.6
2017-Oct-07 07:00N 32°25' W 090°60'3 7.0
2017-Oct-07 06:30N 32°26' W 091°03'4 7.0
2017-Oct-07 06:00N 32°28' W 091°07'3 6.6
2017-Oct-07 05:30N 32°32' W 091°06'3 6.9
2017-Oct-07 05:00N 32°35' W 091°07'5 6.8
2017-Oct-07 04:19N 32°39' W 091°09'  
Track history (hours):
 
Tides and Currents Weather Stations Pressure Air Temp Water Temp Dewpoint Dewpoint Depression Visibility Wind Speed Wind Dir Waves Ship Positions

Viking Queen

Owner: American River Transportation Company, St Louis, MO. More information available from US FCC via Universal Licensing System and Coast Guard Vessel Documentation Center.

Last reported at 2017-Oct-13 12:15 UTC. Time now 2017-Oct-22 10:16 UTC.
Position N 33°15' W 091°07'.
Warning: this ship's position is 8 days out of date.

Length 58 m; draft 3 m.

Type: Towing. MMSI: 366985050.

Date/timePositionNaut miles runAvg speedWind from/ knotsBaromVisibWave heightAir tempDewpointWater temp
2017-Oct-13 12:15N 33°15' W 091°07'1 5.3
2017-Oct-13 12:00N 33°14' W 091°06'3 5.8
2017-Oct-13 11:30N 33°11' W 091°05'2 4.7
2017-Oct-13 11:00N 33°09' W 091°05'4 5.0
2017-Oct-13 10:08N 33°06' W 091°09'1 5.8
2017-Oct-13 09:58N 33°06' W 091°10'3 6.0
2017-Oct-13 09:30N 33°03' W 091°09'3 5.1
2017-Oct-13 08:58N 33°00' W 091°09'3 4.1
2017-Oct-13 08:07N 32°57' W 091°07'1 6.8
2017-Oct-13 08:00N 32°57' W 091°06'3 5.3
2017-Oct-13 07:30N 32°55' W 091°04'3 5.2
2017-Oct-13 06:56N 32°53' W 091°05'3 5.0
2017-Oct-13 06:25N 32°51' W 091°08'2 4.7
2017-Oct-13 06:00N 32°49' W 091°09'2 4.1
2017-Oct-13 05:27N 32°47' W 091°09'2 3.9
2017-Oct-13 05:00N 32°45' W 091°09'0 0.1
2017-Oct-13 04:30N 32°45' W 091°09'0 0.1
2017-Oct-13 04:00N 32°45' W 091°09'2 3.4
2017-Oct-13 03:30N 32°44' W 091°08'3 5.2
2017-Oct-13 02:54N 32°44' W 091°05'3 3.8
2017-Oct-13 02:12N 32°41' W 091°04'0 0.1
2017-Oct-13 01:54N 32°41' W 091°04'0 0.0
2017-Oct-13 01:30N 32°41' W 091°04'2 1.4
2017-Oct-12 23:55N 32°40' W 091°06'2 5.0
2017-Oct-12 23:30N 32°39' W 091°09'3 5.4
2017-Oct-12 23:00N 32°37' W 091°09'3 5.3
2017-Oct-12 22:30N 32°35' W 091°07'2 4.6
2017-Oct-12 22:00N 32°33' W 091°06'2 4.7
2017-Oct-12 21:30N 32°30' W 091°07'2 3.5
2017-Oct-12 21:00N 32°29' W 091°07'3 6.0
2017-Oct-12 20:30N 32°27' W 091°04'3 5.8
2017-Oct-12 20:00N 32°26' W 091°01'2 4.5
2017-Oct-12 19:30N 32°24' W 090°60'2 4.9
2017-Oct-12 19:00N 32°21' W 090°59'3 5.9
2017-Oct-12 18:30N 32°21' W 090°56'2 4.3
2017-Oct-12 18:00N 32°20' W 090°54'2 3.3
2017-Oct-12 17:30N 32°18' W 090°55'0 0.1
2017-Oct-12 17:00N 32°18' W 090°55'0 0.1
2017-Oct-12 16:30N 32°18' W 090°55'0 0.5
2017-Oct-12 16:00N 32°18' W 090°55'0 0.3
2017-Oct-12 15:30N 32°18' W 090°55'0 0.0
2017-Oct-12 15:00N 32°18' W 090°55'0 0.0
2017-Oct-12 14:30N 32°18' W 090°55'0 0.0
2017-Oct-12 14:00N 32°18' W 090°55'0 0.0
2017-Oct-12 13:30N 32°18' W 090°55'0 0.0
2017-Oct-12 13:00N 32°18' W 090°55'0 0.0
2017-Oct-12 12:30N 32°18' W 090°55'0 0.0
2017-Oct-12 12:00N 32°18' W 090°55'0 0.3
2017-Oct-12 11:30N 32°18' W 090°55'2 3.9
2017-Oct-12 11:00N 32°17' W 090°57'3 5.2
2017-Oct-12 10:30N 32°15' W 090°59'1 1.7
2017-Oct-12 10:00N 32°14' W 090°59'2 3.8
2017-Oct-12 09:29N 32°12' W 090°59'2 4.5
2017-Oct-12 09:00N 32°10' W 091°00'3 5.5
2017-Oct-12 08:29N 32°07' W 091°01'4 3.0
2017-Oct-12 07:20N 32°08' W 091°05'1 4.3
2017-Oct-12 07:00N 32°07' W 091°07'3 5.2
2017-Oct-12 06:30N 32°05' W 091°04'2 4.7
2017-Oct-12 06:00N 32°03' W 091°04'3 6.1
2017-Oct-12 05:30N 32°00' W 091°05'6 5.1
2017-Oct-12 04:25N 31°58' W 091°11'4 5.6
2017-Oct-12 03:47N 31°54' W 091°12'5 5.5
2017-Oct-12 02:50N 31°51' W 091°17'2 4.9
2017-Oct-12 02:25N 31°51' W 091°19'2 4.3
2017-Oct-12 01:59N 31°50' W 091°21'3 6.0
2017-Oct-12 01:30N 31°48' W 091°22'3 5.3
2017-Oct-12 00:53N 31°44' W 091°22'2 5.6
2017-Oct-12 00:29N 31°43' W 091°24'  
2017-Oct-07 13:27N 31°56' W 091°12'4 5.9
2017-Oct-07 12:50N 31°59' W 091°09'2 7.2
2017-Oct-07 12:30N 31°59' W 091°06'4 7.0
2017-Oct-07 12:00N 32°02' W 091°04'4 6.6
2017-Oct-07 11:23N 32°06' W 091°06'2 4.5
2017-Oct-07 11:00N 32°08' W 091°07'2 4.1
2017-Oct-07 10:30N 32°08' W 091°04'3 6.0
2017-Oct-07 10:00N 32°08' W 091°01'4 7.9
2017-Oct-07 09:30N 32°12' W 090°60'4 8.9
2017-Oct-07 09:00N 32°16' W 090°58'4 7.2
2017-Oct-07 08:30N 32°18' W 090°55'3 5.1
2017-Oct-07 08:00N 32°21' W 090°56'4 7.2
2017-Oct-07 07:30N 32°21' W 090°60'3 6.6
2017-Oct-07 07:00N 32°25' W 090°60'3 7.0
2017-Oct-07 06:30N 32°26' W 091°03'4 7.0
2017-Oct-07 06:00N 32°28' W 091°07'3 6.6
2017-Oct-07 05:30N 32°32' W 091°06'3 6.9
2017-Oct-07 05:00N 32°35' W 091°07'5 6.8
2017-Oct-07 04:19N 32°39' W 091°09'  

Dump ship's entire track history